sensor_id;sensor_type;location;lat;lon;timestamp;pressure;altitude;pressure_sealevel;temperature;humidity
17054;BME280;8643;48.824;11.422;2022-11-20T00:01:38;96378.53;;;1.19;100.00
17054;BME280;8643;48.824;11.422;2022-11-20T00:04:10;96381.28;;;1.14;100.00
17054;BME280;8643;48.824;11.422;2022-11-20T00:06:39;96368.94;;;1.07;100.00
17054;BME280;8643;48.824;11.422;2022-11-20T00:09:09;96376.56;;;1.00;100.00
17054;BME280;8643;48.824;11.422;2022-11-20T00:11:38;96372.22;;;1.04;100.00
17054;BME280;8643;48.824;11.422;2022-11-20T00:14:08;96370.72;;;1.17;100.00
17054;BME280;8643;48.824;11.422;2022-11-20T00:16:38;96370.72;;;1.17;100.00
17054;BME280;8643;48.824;11.422;2022-11-20T00:19:06;96372.72;;;1.06;100.00
17054;BME280;8643;48.824;11.422;2022-11-20T00:21:35;96370.25;;;1.10;100.00
17054;BME280;8643;48.824;11.422;2022-11-20T00:24:04;96376.22;;;1.07;100.00
17054;BME280;8643;48.824;11.422;2022-11-20T00:26:33;96359.53;;;1.05;100.00
17054;BME280;8643;48.824;11.422;2022-11-20T00:29:02;96362.47;;;1.08;100.00
17054;BME280;8643;48.824;11.422;2022-11-20T00:31:31;96372.97;;;1.10;100.00
17054;BME280;8643;48.824;11.422;2022-11-20T00:34:01;96365.09;;;1.14;100.00
17054;BME280;8643;48.824;11.422;2022-11-20T00:36:33;96371.31;;;1.14;100.00
17054;BME280;8643;48.824;11.422;2022-11-20T00:39:02;96364.06;;;1.09;100.00
17054;BME280;8643;48.824;11.422;2022-11-20T00:41:31;96369.75;;;1.08;100.00
17054;BME280;8643;48.824;11.422;2022-11-20T00:43:59;96369.97;;;1.12;100.00
17054;BME280;8643;48.824;11.422;2022-11-20T00:46:29;96376.16;;;1.12;100.00
17054;BME280;8643;48.824;11.422;2022-11-20T00:48:58;96378.31;;;1.15;100.00
17054;BME280;8643;48.824;11.422;2022-11-20T00:51:28;96375.88;;;1.14;100.00
17054;BME280;8643;48.824;11.422;2022-11-20T00:53:57;96381.50;;;1.22;100.00
17054;BME280;8643;48.824;11.422;2022-11-20T00:56:27;96386.97;;;1.12;100.00
17054;BME280;8643;48.824;11.422;2022-11-20T00:58:55;96382.38;;;1.13;100.00
17054;BME280;8643;48.824;11.422;2022-11-20T01:01:25;96391.31;;;1.08;100.00
17054;BME280;8643;48.824;11.422;2022-11-20T01:03:58;96396.19;;;1.06;100.00
17054;BME280;8643;48.824;11.422;2022-11-20T01:06:30;96389.16;;;1.10;100.00
17054;BME280;8643;48.824;11.422;2022-11-20T01:09:01;96389.66;;;1.12;100.00
17054;BME280;8643;48.824;11.422;2022-11-20T01:11:33;96407.75;;;1.12;100.00
17054;BME280;8643;48.824;11.422;2022-11-20T01:14:05;96408.25;;;1.14;100.00
17054;BME280;8643;48.824;11.422;2022-11-20T01:16:36;96396.91;;;1.17;100.00
17054;BME280;8643;48.824;11.422;2022-11-20T01:19:09;96396.63;;;1.18;100.00
17054;BME280;8643;48.824;11.422;2022-11-20T01:21:49;96392.28;;;1.17;100.00
17054;BME280;8643;48.824;11.422;2022-11-20T01:24:21;96393.13;;;1.18;100.00
17054;BME280;8643;48.824;11.422;2022-11-20T01:26:51;96396.06;;;1.21;100.00
17054;BME280;8643;48.824;11.422;2022-11-20T01:29:21;96397.38;;;1.24;100.00
17054;BME280;8643;48.824;11.422;2022-11-20T01:31:51;96393.00;;;1.28;100.00
17054;BME280;8643;48.824;11.422;2022-11-20T01:34:22;96390.38;;;1.23;100.00
17054;BME280;8643;48.824;11.422;2022-11-20T01:36:52;96390.53;;;1.32;100.00
17054;BME280;8643;48.824;11.422;2022-11-20T01:39:23;96385.44;;;1.30;100.00
17054;BME280;8643;48.824;11.422;2022-11-20T01:41:53;96388.69;;;1.27;100.00
17054;BME280;8643;48.824;11.422;2022-11-20T01:44:51;96383.84;;;1.29;100.00
17054;BME280;8643;48.824;11.422;2022-11-20T01:47:30;96394.84;;;1.33;100.00
17054;BME280;8643;48.824;11.422;2022-11-20T01:50:06;96387.63;;;1.28;100.00
17054;BME280;8643;48.824;11.422;2022-11-20T01:52:45;96387.09;;;1.26;100.00
17054;BME280;8643;48.824;11.422;2022-11-20T01:55:22;96387.91;;;1.26;100.00
17054;BME280;8643;48.824;11.422;2022-11-20T01:57:52;96388.97;;;1.25;100.00
17054;BME280;8643;48.824;11.422;2022-11-20T02:00:21;96391.44;;;1.22;100.00
17054;BME280;8643;48.824;11.422;2022-11-20T02:02:54;96389.53;;;1.27;100.00
17054;BME280;8643;48.824;11.422;2022-11-20T02:05:28;96386.53;;;1.29;100.00
17054;BME280;8643;48.824;11.422;2022-11-20T02:08:04;96378.72;;;1.27;100.00
17054;BME280;8643;48.824;11.422;2022-11-20T02:10:33;96386.06;;;1.22;100.00
17054;BME280;8643;48.824;11.422;2022-11-20T02:13:03;96379.31;;;1.24;100.00
17054;BME280;8643;48.824;11.422;2022-11-20T02:15:49;96392.09;;;1.38;100.00
17054;BME280;8643;48.824;11.422;2022-11-20T02:18:20;96381.88;;;1.35;100.00
17054;BME280;8643;48.824;11.422;2022-11-20T02:20:53;96385.44;;;1.30;100.00
17054;BME280;8643;48.824;11.422;2022-11-20T02:23:33;96383.50;;;1.36;100.00
17054;BME280;8643;48.824;11.422;2022-11-20T02:26:12;96387.56;;;1.33;100.00
17054;BME280;8643;48.824;11.422;2022-11-20T02:28:42;96384.81;;;1.38;100.00
17054;BME280;8643;48.824;11.422;2022-11-20T02:31:11;96386.44;;;1.39;100.00
17054;BME280;8643;48.824;11.422;2022-11-20T02:33:39;96378.38;;;1.34;100.00
17054;BME280;8643;48.824;11.422;2022-11-20T02:36:11;96382.69;;;1.35;100.00
17054;BME280;8643;48.824;11.422;2022-11-20T02:38:43;96377.28;;;1.35;100.00
17054;BME280;8643;48.824;11.422;2022-11-20T02:41:13;96386.72;;;1.38;100.00
17054;BME280;8643;48.824;11.422;2022-11-20T02:43:41;96383.50;;;1.36;100.00
17054;BME280;8643;48.824;11.422;2022-11-20T02:46:09;96378.69;;;1.33;100.00
17054;BME280;8643;48.824;11.422;2022-11-20T02:48:38;96379.19;;;1.35;100.00
17054;BME280;8643;48.824;11.422;2022-11-20T02:51:07;96378.63;;;1.38;100.00
17054;BME280;8643;48.824;11.422;2022-11-20T02:53:35;96376.78;;;1.33;100.00
17054;BME280;8643;48.824;11.422;2022-11-20T02:56:05;96386.72;;;1.38;100.00
17054;BME280;8643;48.824;11.422;2022-11-20T02:58:35;96370.00;;;1.36;100.00
17054;BME280;8643;48.824;11.422;2022-11-20T03:01:04;96369.16;;;1.40;100.00
17054;BME280;8643;48.824;11.422;2022-11-20T03:03:32;96372.44;;;1.37;100.00
17054;BME280;8643;48.824;11.422;2022-11-20T03:06:01;96372.13;;;1.39;100.00
17054;BME280;8643;48.824;11.422;2022-11-20T03:08:29;96366.75;;;1.39;100.00
17054;BME280;8643;48.824;11.422;2022-11-20T03:11:03;96367.25;;;1.41;100.00
17054;BME280;8643;48.824;11.422;2022-11-20T03:13:34;96363.19;;;1.43;100.00
17054;BME280;8643;48.824;11.422;2022-11-20T03:16:09;96364.78;;;1.44;100.00
17054;BME280;8643;48.824;11.422;2022-11-20T03:18:38;96365.84;;;1.49;100.00
17054;BME280;8643;48.824;11.422;2022-11-20T03:21:08;96361.22;;;1.49;100.00
17054;BME280;8643;48.824;11.422;2022-11-20T03:23:38;96355.31;;;1.47;100.00
17054;BME280;8643;48.824;11.422;2022-11-20T03:26:10;96359.63;;;1.48;100.00
17054;BME280;8643;48.824;11.422;2022-11-20T03:28:40;96360.44;;;1.49;100.00
17054;BME280;8643;48.824;11.422;2022-11-20T03:31:11;96362.59;;;1.46;100.00
17054;BME280;8643;48.824;11.422;2022-11-20T03:33:41;96366.63;;;1.49;100.00
17054;BME280;8643;48.824;11.422;2022-11-20T03:36:12;96370.88;;;1.55;100.00
17054;BME280;8643;48.824;11.422;2022-11-20T03:38:41;96362.50;;;1.57;100.00
17054;BME280;8643;48.824;11.422;2022-11-20T03:41:13;96362.22;;;1.58;100.00
17054;BME280;8643;48.824;11.422;2022-11-20T03:43:48;96362.94;;;1.64;100.00
17054;BME280;8643;48.824;11.422;2022-11-20T03:46:17;96362.59;;;1.71;100.00
17054;BME280;8643;48.824;11.422;2022-11-20T03:48:46;96360.94;;;1.75;100.00
17054;BME280;8643;48.824;11.422;2022-11-20T03:51:20;96351.44;;;1.77;100.00
17054;BME280;8643;48.824;11.422;2022-11-20T03:53:51;96363.84;;;1.78;100.00
17054;BME280;8643;48.824;11.422;2022-11-20T03:56:24;96367.88;;;1.81;100.00
17054;BME280;8643;48.824;11.422;2022-11-20T03:58:53;96369.75;;;1.80;100.00
17054;BME280;8643;48.824;11.422;2022-11-20T04:01:24;96369.25;;;1.78;100.00
17054;BME280;8643;48.824;11.422;2022-11-20T04:03:54;96362.78;;;1.79;100.00
17054;BME280;8643;48.824;11.422;2022-11-20T04:06:26;96361.50;;;1.72;100.00
17054;BME280;8643;48.824;11.422;2022-11-20T04:08:56;96364.28;;;1.67;100.00
17054;BME280;8643;48.824;11.422;2022-11-20T04:11:27;96358.88;;;1.67;100.00
17054;BME280;8643;48.824;11.422;2022-11-20T04:14:00;96366.41;;;1.70;100.00
17054;BME280;8643;48.824;11.422;2022-11-20T04:16:32;96362.81;;;1.74;100.00
17054;BME280;8643;48.824;11.422;2022-11-20T04:19:04;96360.28;;;1.83;100.00
17054;BME280;8643;48.824;11.422;2022-11-20T04:21:33;96368.69;;;1.81;100.00
17054;BME280;8643;48.824;11.422;2022-11-20T04:24:02;96363.56;;;1.80;100.00
17054;BME280;8643;48.824;11.422;2022-11-20T04:26:31;96362.69;;;1.85;100.00
17054;BME280;8643;48.824;11.422;2022-11-20T04:29:01;96359.72;;;1.86;100.00
17054;BME280;8643;48.824;11.422;2022-11-20T04:31:32;96358.59;;;1.87;100.00
17054;BME280;8643;48.824;11.422;2022-11-20T04:34:02;96354.75;;;1.93;100.00
17054;BME280;8643;48.824;11.422;2022-11-20T04:36:32;96351.97;;;1.98;100.00
17054;BME280;8643;48.824;11.422;2022-11-20T04:39:05;96350.31;;;2.03;100.00
17054;BME280;8643;48.824;11.422;2022-11-20T04:41:35;96348.63;;;2.07;100.00
17054;BME280;8643;48.824;11.422;2022-11-20T04:44:06;96353.44;;;2.10;100.00
17054;BME280;8643;48.824;11.422;2022-11-20T04:46:36;96350.97;;;2.13;100.00
17054;BME280;8643;48.824;11.422;2022-11-20T04:49:06;96356.91;;;2.15;100.00
17054;BME280;8643;48.824;11.422;2022-11-20T04:51:35;96360.91;;;2.18;100.00
17054;BME280;8643;48.824;11.422;2022-11-20T04:54:04;96360.31;;;2.21;100.00
17054;BME280;8643;48.824;11.422;2022-11-20T04:56:32;96353.38;;;2.15;100.00
17054;BME280;8643;48.824;11.422;2022-11-20T04:59:01;96355.28;;;2.14;100.00
17054;BME280;8643;48.824;11.422;2022-11-20T05:01:31;96347.59;;;2.22;100.00
17054;BME280;8643;48.824;11.422;2022-11-20T05:04:00;96345.94;;;2.26;100.00
17054;BME280;8643;48.824;11.422;2022-11-20T05:06:28;96353.47;;;2.29;100.00
17054;BME280;8643;48.824;11.422;2022-11-20T05:08:56;96353.97;;;2.31;100.00
17054;BME280;8643;48.824;11.422;2022-11-20T05:11:25;96355.03;;;2.30;100.00
17054;BME280;8643;48.824;11.422;2022-11-20T05:13:58;96357.75;;;2.30;100.00
17054;BME280;8643;48.824;11.422;2022-11-20T05:16:27;96354.75;;;2.31;100.00
17054;BME280;8643;48.824;11.422;2022-11-20T05:18:57;96355.59;;;2.32;100.00
17054;BME280;8643;48.824;11.422;2022-11-20T05:21:25;96355.00;;;2.35;100.00
17054;BME280;8643;48.824;11.422;2022-11-20T05:23:54;96355.50;;;2.37;100.00
17054;BME280;8643;48.824;11.422;2022-11-20T05:26:23;96345.78;;;2.36;100.00
17054;BME280;8643;48.824;11.422;2022-11-20T05:28:51;96352.50;;;2.38;100.00
17054;BME280;8643;48.824;11.422;2022-11-20T05:31:22;96354.25;;;2.48;100.00
17054;BME280;8643;48.824;11.422;2022-11-20T05:33:57;96353.28;;;2.58;100.00
17054;BME280;8643;48.824;11.422;2022-11-20T05:36:25;96357.81;;;2.63;100.00
17054;BME280;8643;48.824;11.422;2022-11-20T05:38:54;96356.41;;;2.65;100.00
17054;BME280;8643;48.824;11.422;2022-11-20T05:41:27;96350.13;;;2.70;100.00
17054;BME280;8643;48.824;11.422;2022-11-20T05:43:56;96348.75;;;2.72;100.00
17054;BME280;8643;48.824;11.422;2022-11-20T05:46:26;96350.34;;;2.73;100.00
17054;BME280;8643;48.824;11.422;2022-11-20T05:48:57;96351.16;;;2.74;100.00
17054;BME280;8643;48.824;11.422;2022-11-20T05:51:27;96346.25;;;2.76;100.00
17054;BME280;8643;48.824;11.422;2022-11-20T05:53:57;96351.34;;;2.78;100.00
17054;BME280;8643;48.824;11.422;2022-11-20T05:56:25;96355.16;;;2.77;100.00
17054;BME280;8643;48.824;11.422;2022-11-20T05:58:54;96351.34;;;2.78;100.00
17054;BME280;8643;48.824;11.422;2022-11-20T06:01:24;96355.66;;;2.79;100.00
17054;BME280;8643;48.824;11.422;2022-11-20T06:03:54;96363.16;;;2.82;100.00
17054;BME280;8643;48.824;11.422;2022-11-20T06:06:24;96363.56;;;2.75;100.00
17054;BME280;8643;48.824;11.422;2022-11-20T06:08:54;96370.28;;;2.78;100.00
17054;BME280;8643;48.824;11.422;2022-11-20T06:11:22;96368.59;;;2.82;100.00
17054;BME280;8643;48.824;11.422;2022-11-20T06:13:51;96362.19;;;2.78;100.00
17054;BME280;8643;48.824;11.422;2022-11-20T06:16:20;96359.75;;;2.76;100.00
17054;BME280;8643;48.824;11.422;2022-11-20T06:18:49;96367.38;;;2.74;100.00
17054;BME280;8643;48.824;11.422;2022-11-20T06:21:20;96363.84;;;2.73;100.00
17054;BME280;8643;48.824;11.422;2022-11-20T06:23:52;96371.06;;;2.78;100.00
17054;BME280;8643;48.824;11.422;2022-11-20T06:26:22;96370.88;;;2.74;100.00
17054;BME280;8643;48.824;11.422;2022-11-20T06:28:53;96368.38;;;2.78;100.00
17054;BME280;8643;48.824;11.422;2022-11-20T06:31:25;96369.50;;;2.77;100.00
17054;BME280;8643;48.824;11.422;2022-11-20T06:33:54;96374.56;;;2.79;100.00
17054;BME280;8643;48.824;11.422;2022-11-20T06:36:23;96369.16;;;2.79;100.00
17054;BME280;8643;48.824;11.422;2022-11-20T06:38:53;96369.16;;;2.79;100.00
17054;BME280;8643;48.824;11.422;2022-11-20T06:41:22;96371.66;;;2.75;100.00
17054;BME280;8643;48.824;11.422;2022-11-20T06:43:50;96367.88;;;2.76;100.00
17054;BME280;8643;48.824;11.422;2022-11-20T06:46:19;96371.38;;;2.77;100.00
17054;BME280;8643;48.824;11.422;2022-11-20T06:48:49;96375.91;;;2.81;100.00
17054;BME280;8643;48.824;11.422;2022-11-20T06:51:18;96387.00;;;2.80;100.00
17054;BME280;8643;48.824;11.422;2022-11-20T06:53:46;96384.88;;;2.77;100.00
17054;BME280;8643;48.824;11.422;2022-11-20T06:56:16;96392.13;;;2.81;100.00
17054;BME280;8643;48.824;11.422;2022-11-20T06:58:45;96391.31;;;2.81;100.00
17054;BME280;8643;48.824;11.422;2022-11-20T07:01:14;96394.31;;;2.79;100.00
17054;BME280;8643;48.824;11.422;2022-11-20T07:03:43;96396.44;;;2.82;100.00
17054;BME280;8643;48.824;11.422;2022-11-20T07:06:18;96393.75;;;2.82;100.00
17054;BME280;8643;48.824;11.422;2022-11-20T07:08:47;96394.25;;;2.84;100.00
17054;BME280;8643;48.824;11.422;2022-11-20T07:11:19;96396.66;;;2.86;100.00
17054;BME280;8643;48.824;11.422;2022-11-20T07:13:47;96395.56;;;2.87;100.00
17054;BME280;8643;48.824;11.422;2022-11-20T07:16:16;96392.13;;;2.81;100.00
17054;BME280;8643;48.824;11.422;2022-11-20T07:18:44;96401.56;;;2.84;100.00
17054;BME280;8643;48.824;11.422;2022-11-20T07:21:17;96395.03;;;2.85;100.00
17054;BME280;8643;48.824;11.422;2022-11-20T07:23:45;96389.63;;;2.85;100.00
17054;BME280;8643;48.824;11.422;2022-11-20T07:26:13;96403.44;;;2.83;100.00
17054;BME280;8643;48.824;11.422;2022-11-20T07:28:45;96390.94;;;2.87;100.00
17054;BME280;8643;48.824;11.422;2022-11-20T07:31:14;96400.44;;;2.85;100.00
17054;BME280;8643;48.824;11.422;2022-11-20T07:33:45;96404.47;;;2.87;100.00
17054;BME280;8643;48.824;11.422;2022-11-20T07:36:14;96397.66;;;2.90;100.00
17054;BME280;8643;48.824;11.422;2022-11-20T07:38:43;96402.25;;;2.89;100.00
17054;BME280;8643;48.824;11.422;2022-11-20T07:41:11;96397.06;;;2.93;100.00
17054;BME280;8643;48.824;11.422;2022-11-20T07:43:39;96404.28;;;2.98;100.00
17054;BME280;8643;48.824;11.422;2022-11-20T07:46:10;96398.81;;;3.03;100.00
17054;BME280;8643;48.824;11.422;2022-11-20T07:48:39;96396.69;;;3.00;100.00
17054;BME280;8643;48.824;11.422;2022-11-20T07:51:08;96387.78;;;2.99;100.00
17054;BME280;8643;48.824;11.422;2022-11-20T07:53:36;96390.19;;;3.01;100.00
17054;BME280;8643;48.824;11.422;2022-11-20T07:56:05;96394.72;;;3.05;100.00
17054;BME280;8643;48.824;11.422;2022-11-20T07:58:34;96394.72;;;3.05;100.00
17054;BME280;8643;48.824;11.422;2022-11-20T08:01:06;96393.28;;;3.08;100.00
17054;BME280;8643;48.824;11.422;2022-11-20T08:03:36;96392.81;;;3.06;100.00
17054;BME280;8643;48.824;11.422;2022-11-20T08:06:07;96390.88;;;3.06;100.00
17054;BME280;8643;48.824;11.422;2022-11-20T08:08:35;96402.53;;;3.07;100.00
17054;BME280;8643;48.824;11.422;2022-11-20T08:11:09;96397.13;;;3.07;100.00
17054;BME280;8643;48.824;11.422;2022-11-20T08:13:55;96406.75;;;3.13;100.00
17054;BME280;8643;48.824;11.422;2022-11-20T08:16:44;96397.53;;;3.14;100.00
17054;BME280;8643;48.824;11.422;2022-11-20T08:19:17;96397.81;;;3.12;100.00
17054;BME280;8643;48.824;11.422;2022-11-20T08:21:46;96398.84;;;3.17;100.00
17054;BME280;8643;48.824;11.422;2022-11-20T08:24:17;96403.44;;;3.16;100.00
17054;BME280;8643;48.824;11.422;2022-11-20T08:26:46;96409.16;;;3.15;100.00
17054;BME280;8643;48.824;11.422;2022-11-20T08:29:14;96406.66;;;3.18;100.00
17054;BME280;8643;48.824;11.422;2022-11-20T08:31:43;96406.28;;;3.25;100.00
17054;BME280;8643;48.824;11.422;2022-11-20T08:34:15;96409.00;;;3.25;100.00
17054;BME280;8643;48.824;11.422;2022-11-20T08:36:45;96407.22;;;3.34;100.00
17054;BME280;8643;48.824;11.422;2022-11-20T08:39:14;96411.00;;;3.33;100.00
17054;BME280;8643;48.824;11.422;2022-11-20T08:41:42;96410.13;;;3.38;100.00
17054;BME280;8643;48.824;11.422;2022-11-20T08:44:11;96408.13;;;3.43;100.00
17054;BME280;8643;48.824;11.422;2022-11-20T08:46:41;96411.84;;;3.47;100.00
17054;BME280;8643;48.824;11.422;2022-11-20T08:49:15;96405.63;;;3.61;100.00
17054;BME280;8643;48.824;11.422;2022-11-20T08:51:45;96411.16;;;3.70;100.00
17054;BME280;8643;48.824;11.422;2022-11-20T08:54:14;96412.16;;;3.74;100.00
17054;BME280;8643;48.824;11.422;2022-11-20T08:56:46;96407.97;;;3.81;100.00
17054;BME280;8643;48.824;11.422;2022-11-20T08:59:14;96404.44;;;3.95;100.00
17054;BME280;8643;48.824;11.422;2022-11-20T09:02:03;96414.38;;;3.99;100.00
17054;BME280;8643;48.824;11.422;2022-11-20T09:04:32;96413.47;;;3.90;100.00
17054;BME280;8643;48.824;11.422;2022-11-20T09:07:01;96416.47;;;3.89;100.00
17054;BME280;8643;48.824;11.422;2022-11-20T09:09:30;96406.25;;;3.85;100.00
17054;BME280;8643;48.824;11.422;2022-11-20T09:11:59;96414.25;;;3.91;100.00
17054;BME280;8643;48.824;11.422;2022-11-20T09:14:27;96413.75;;;3.89;100.00
17054;BME280;8643;48.824;11.422;2022-11-20T09:16:57;96412.28;;;3.96;100.00
17054;BME280;8643;48.824;11.422;2022-11-20T09:19:25;96406.56;;;3.98;100.00
17054;BME280;8643;48.824;11.422;2022-11-20T09:22:03;96406.13;;;3.91;100.00
17054;BME280;8643;48.824;11.422;2022-11-20T09:24:31;96414.75;;;3.93;100.00
17054;BME280;8643;48.824;11.422;2022-11-20T09:27:03;96404.13;;;3.82;100.00
17054;BME280;8643;48.824;11.422;2022-11-20T09:29:31;96402.53;;;3.81;100.00
17054;BME280;8643;48.824;11.422;2022-11-20T09:32:00;96400.41;;;3.92;100.00
17054;BME280;8643;48.824;11.422;2022-11-20T09:34:28;96404.59;;;4.12;100.00
17054;BME280;8643;48.824;11.422;2022-11-20T09:36:56;96393.97;;;4.16;100.00
17054;BME280;8643;48.824;11.422;2022-11-20T09:39:32;96402.41;;;4.14;100.00
17054;BME280;8643;48.824;11.422;2022-11-20T09:42:28;96398.00;;;4.04;100.00
17054;BME280;8643;48.824;11.422;2022-11-20T09:45:23;96393.31;;;3.96;100.00
17054;BME280;8643;48.824;11.422;2022-11-20T09:48:16;96390.78;;;4.00;100.00
17054;BME280;8643;48.824;11.422;2022-11-20T09:50:53;96392.69;;;3.99;100.00
17054;BME280;8643;48.824;11.422;2022-11-20T09:53:36;96400.00;;;3.99;100.00
17054;BME280;8643;48.824;11.422;2022-11-20T09:56:15;96395.19;;;3.96;100.00
17054;BME280;8643;48.824;11.422;2022-11-20T09:58:52;96396.59;;;4.07;100.00
17054;BME280;8643;48.824;11.422;2022-11-20T10:01:29;96385.44;;;4.09;100.00
17054;BME280;8643;48.824;11.422;2022-11-20T10:04:11;96388.75;;;4.06;100.00
17054;BME280;8643;48.824;11.422;2022-11-20T10:06:49;96387.38;;;4.08;100.00
17054;BME280;8643;48.824;11.422;2022-11-20T10:09:53;96381.94;;;4.08;100.00
17054;BME280;8643;48.824;11.422;2022-11-20T10:12:34;96392.38;;;4.15;100.00
17054;BME280;8643;48.824;11.422;2022-11-20T10:15:23;96388.56;;;4.16;100.00
17054;BME280;8643;48.824;11.422;2022-11-20T10:18:11;96386.66;;;4.16;100.00
17054;BME280;8643;48.824;11.422;2022-11-20T10:20:53;96389.75;;;4.23;100.00
17054;BME280;8643;48.824;11.422;2022-11-20T10:23:47;96383.94;;;4.30;100.00
17054;BME280;8643;48.824;11.422;2022-11-20T10:26:28;96389.72;;;4.37;100.00
17054;BME280;8643;48.824;11.422;2022-11-20T10:29:12;96392.72;;;4.36;100.00
17054;BME280;8643;48.824;11.422;2022-11-20T10:31:43;96385.91;;;4.38;100.00
17054;BME280;8643;48.824;11.422;2022-11-20T10:34:22;96385.91;;;4.38;100.00
17054;BME280;8643;48.824;11.422;2022-11-20T10:36:56;96398.84;;;4.41;100.00
17054;BME280;8643;48.824;11.422;2022-11-20T10:39:35;96386.28;;;4.46;100.00
17054;BME280;8643;48.824;11.422;2022-11-20T10:42:11;96396.53;;;4.49;100.00
17054;BME280;8643;48.824;11.422;2022-11-20T10:44:53;96384.59;;;4.50;100.00
17054;BME280;8643;48.824;11.422;2022-11-20T10:47:33;96388.88;;;4.51;100.00
17054;BME280;8643;48.824;11.422;2022-11-20T10:50:08;96388.44;;;4.57;100.00
17054;BME280;8643;48.824;11.422;2022-11-20T10:52:46;96392.78;;;4.58;100.00
17054;BME280;8643;48.824;11.422;2022-11-20T10:55:30;96384.66;;;4.58;100.00
17054;BME280;8643;48.824;11.422;2022-11-20T10:58:10;96377.38;;;4.68;100.00
17054;BME280;8643;48.824;11.422;2022-11-20T11:00:40;96381.53;;;4.88;100.00
17054;BME280;8643;48.824;11.422;2022-11-20T11:03:27;96374.34;;;4.92;100.00
17054;BME280;8643;48.824;11.422;2022-11-20T11:06:03;96368.19;;;5.00;100.00
17054;BME280;8643;48.824;11.422;2022-11-20T11:08:39;96373.53;;;5.14;100.00
17054;BME280;8643;48.824;11.422;2022-11-20T11:11:20;96356.50;;;5.22;100.00
17054;BME280;8643;48.824;11.422;2022-11-20T11:13:49;96368.88;;;5.06;100.00
17054;BME280;8643;48.824;11.422;2022-11-20T11:16:25;96367.47;;;4.86;100.00
17054;BME280;8643;48.824;11.422;2022-11-20T11:19:04;96377.59;;;4.57;100.00
17054;BME280;8643;48.824;11.422;2022-11-20T11:21:33;96375.94;;;4.48;100.00
17054;BME280;8643;48.824;11.422;2022-11-20T11:24:04;96382.25;;;4.43;100.00
17054;BME280;8643;48.824;11.422;2022-11-20T11:26:57;96378.16;;;4.46;100.00
17054;BME280;8643;48.824;11.422;2022-11-20T11:29:26;96371.03;;;4.50;100.00
17054;BME280;8643;48.824;11.422;2022-11-20T11:32:05;96367.63;;;4.44;100.00
17054;BME280;8643;48.824;11.422;2022-11-20T11:34:35;96368.09;;;4.46;100.00
17054;BME280;8643;48.824;11.422;2022-11-20T11:37:11;96358.69;;;4.44;100.00
17054;BME280;8643;48.824;11.422;2022-11-20T11:39:43;96359.78;;;4.43;100.00
17054;BME280;8643;48.824;11.422;2022-11-20T11:42:21;96358.41;;;4.68;100.00
17054;BME280;8643;48.824;11.422;2022-11-20T11:44:50;96357.63;;;4.99;100.00
17054;BME280;8643;48.824;11.422;2022-11-20T11:47:44;96359.50;;;4.89;100.00
17054;BME280;8643;48.824;11.422;2022-11-20T11:50:19;96355.25;;;4.74;100.00
17054;BME280;8643;48.824;11.422;2022-11-20T11:52:56;96373.00;;;4.58;100.00
17054;BME280;8643;48.824;11.422;2022-11-20T11:55:33;96356.31;;;4.65;100.00
17054;BME280;8643;48.824;11.422;2022-11-20T11:58:33;96357.53;;;4.58;100.00
17054;BME280;8643;48.824;11.422;2022-11-20T12:01:07;96360.84;;;4.55;100.00
17054;BME280;8643;48.824;11.422;2022-11-20T12:03:44;96352.41;;;4.57;100.00
17054;BME280;8643;48.824;11.422;2022-11-20T12:06:17;96353.94;;;4.72;100.00
17054;BME280;8643;48.824;11.422;2022-11-20T12:08:52;96356.66;;;4.72;100.00
17054;BME280;8643;48.824;11.422;2022-11-20T12:11:30;96354.38;;;4.65;100.00
17054;BME280;8643;48.824;11.422;2022-11-20T12:14:10;96347.75;;;4.71;100.00
17054;BME280;8643;48.824;11.422;2022-11-20T12:16:41;96346.72;;;4.67;100.00
17054;BME280;8643;48.824;11.422;2022-11-20T12:19:13;96346.13;;;4.70;100.00
17054;BME280;8643;48.824;11.422;2022-11-20T12:21:54;96338.69;;;4.76;100.00
17054;BME280;8643;48.824;11.422;2022-11-20T12:24:52;96339.69;;;4.89;100.00
17054;BME280;8643;48.824;11.422;2022-11-20T12:27:49;96338.28;;;4.91;100.00
17054;BME280;8643;48.824;11.422;2022-11-20T12:30:22;96338.91;;;4.88;100.00
17054;BME280;8643;48.824;11.422;2022-11-20T12:33:20;96334.28;;;4.89;100.00
17054;BME280;8643;48.824;11.422;2022-11-20T12:36:13;96337.06;;;4.98;100.00
17054;BME280;8643;48.824;11.422;2022-11-20T12:39:07;96334.16;;;4.94;100.00
17054;BME280;8643;48.824;11.422;2022-11-20T12:45:12;96339.78;;;4.98;100.00
17054;BME280;8643;48.824;11.422;2022-11-20T12:51:14;96339.59;;;4.94;100.00
17054;BME280;8643;48.824;11.422;2022-11-20T12:54:14;96334.47;;;4.92;100.00
17054;BME280;8643;48.824;11.422;2022-11-20T12:56:57;96330.16;;;4.91;100.00
17054;BME280;8643;48.824;11.422;2022-11-20T12:59:51;96338.28;;;4.91;100.00
17054;BME280;8643;48.824;11.422;2022-11-20T13:02:33;96324.25;;;4.89;100.00
17054;BME280;8643;48.824;11.422;2022-11-20T13:05:21;96325.97;;;4.85;100.00
17054;BME280;8643;48.824;11.422;2022-11-20T13:07:54;96319.91;;;4.88;100.00
17054;BME280;8643;48.824;11.422;2022-11-20T13:10:33;96326.78;;;4.86;100.00
17054;BME280;8643;48.824;11.422;2022-11-20T13:13:16;96322.81;;;4.92;100.00
17054;BME280;8643;48.824;11.422;2022-11-20T13:15:55;96320.09;;;4.92;100.00
17054;BME280;8643;48.824;11.422;2022-11-20T13:18:27;96311.63;;;4.93;100.00
17054;BME280;8643;48.824;11.422;2022-11-20T13:20:56;96311.84;;;4.97;100.00
17054;BME280;8643;48.824;11.422;2022-11-20T13:23:33;96303.88;;;5.01;100.00
17054;BME280;8643;48.824;11.422;2022-11-20T13:26:15;96305.66;;;5.05;100.00
17054;BME280;8643;48.824;11.422;2022-11-20T13:28:46;96306.44;;;5.06;100.00
17054;BME280;8643;48.824;11.422;2022-11-20T13:31:31;96306.44;;;5.06;100.00
17054;BME280;8643;48.824;11.422;2022-11-20T13:34:04;96294.81;;;5.05;100.00
17054;BME280;8643;48.824;11.422;2022-11-20T13:36:34;96284.25;;;5.04;100.00
17054;BME280;8643;48.824;11.422;2022-11-20T13:39:05;96292.56;;;5.07;100.00